Louisville, NE

9:33 PM CST on December 28, 2014 (GMT -0600)
Plattsmouth Municipal | Change Station
CLOSE
Current Station
Airport
Location: Plattsmouth,
Elevation: 1201 ft
Nearby Weather Stations

Elev 1201 ft 40.95 °N, 95.92 °W | Updated 18 minutes ago

Overcast
Overcast
29 °F
Feels Like 24 °F
N
5
Wind Variable Wind from NNE

Today
High -- | Low -- °F
--% Chance of Precip.
Yesterday
High -- | Low -- °F
Precip. -- in
7:48 AM 5:03 PM
First Quarter, 54% visible
Pressure 30.16 in
Visibility 10.0 miles
Clouds Overcast 8000 ft
Windchill 24 °F
Dew Point 23 °F
Humidity 78%
Rainfall 0.00 in
Snow Depth Not available.
UV 0 out of 12
Pollen .10 out of 12
Air Quality Not available.
Flu Activity Not available.
METAR KPMV 290315Z AUTO 02004KT 10SM OVC080 M02/M05 A3016 RMK AO2 T10171050

More Conditions Fewer Conditions

Pressure 30.16 in
Visibility 10.0 miles
Clouds Overcast 8000 ft
Windchill 24 °F
Dew Point 23 °F
Humidity 78%
Rainfall 0.00 in
Snow Depth Not available.
UV 0 out of 12
Pollen .10 out of 12
Air Quality Not available.
Flu Activity Not available.
METAR KPMV 290315Z AUTO 02004KT 10SM OVC080 M02/M05 A3016 RMK AO2 T10171050

More Conditions Fewer Conditions

10-Day Weather Forecast

Almanac

Astronomy

Dec. 28, 2014 Rise Set
Actual Time
Civil Twilight
Nautical Twilight
Astronomical Twilight
Moon
Length of Visible Light
Length of Day
Tomorrow will be .
, % of the Moon is Illuminated

Today's Extremes

State Highs State Lows

Community

WunderPhotos

Upload Photos

1,781,518 photos uploaded!

WunderBlogs® & News

Nearby

Air Quality

  Air Quality AQ Index Pollutant
Not available.

Snow Depth

Station Depth Elevation

Earthquake Activity

City Distance Mag. Time & Date
Minimum magnitude displayed is 2.5.

Coastal Water Temperatures

Place Temperature

Nearby Weather Stations